首页
METAR-TAF:

METAR-TAF

机场 :

布拉哈島, 马达加斯加

纬度: 17-05S, 经度: 049-49E, 海拔: 2米

当前天气观测

该预报发布于44分钟前的12:00 UTC
风速8节,风向南转南东
温度 28°C
湿度 66%
气压 1018 hPa
能见度10公里或以上
少量云层高于1700英尺
散云层高于4000英尺

METAR: FMMS 171200Z 16008KT 9999 FEW017 SCT040 28/21 Q1018

时间: 15:44 (12:44 UTC)


TAF: 丢失

超过4000个机场的气象观测和天气预报(METAR&TAF报告)。

可查询的气象台以黄色和红色小点在地图上表示。

将鼠标移到小点上方,可查看气象台名称。

然后点击查看天气观测和预报。

如需切换地图:点击带黑十字的绿色按钮放大地图;点击带横线的绿色按钮缩小地图;或者点击绿色箭头查看邻近地区的地图。


METAR-TAF: